AFR1477 LEBB-LFPG
Flight info
| Callsign | AFR1477 |
|---|---|
| Flight time | 1h 21m |
| Altitude | 30000 |
| Route | SSN L176 LUSEM DCT LULUT DCT 452855N0001739W DCT POI DCT PEPAX UT182 KEPER |
| Aircraft | E190/M-SDE3GILORVW/S |
Departure
| Time | 2026-05-08 12:28 |
|---|---|
| Airport | Bilbao Airport (LEBB) |
Arrival
| Time | 2026-05-08 13:50 |
|---|---|
| Airport | Charles de Gaulle International Airport (LFPG) |
| Time | Latitude | Longitude | Altitude | Speed | Heading |
|---|---|---|---|---|---|
| 2026-05-08 11:59 | 43.30480 | -2.90808 | 166 ft | 0 kts | 26° |
| 2026-05-08 12:17 | 43.30479 | -2.90809 | 166 ft | 0 kts | 26° |
| 2026-05-08 12:17 | 43.30479 | -2.90808 | 166 ft | 0 kts | 26° |
| 2026-05-08 12:17 | 43.30479 | -2.90809 | 166 ft | 1 kts | 26° |
| 2026-05-08 12:17 | 43.30466 | -2.90818 | 166 ft | 2 kts | 27° |
| 2026-05-08 12:18 | 43.30453 | -2.90827 | 165 ft | 2 kts | 26° |
| 2026-05-08 12:18 | 43.30439 | -2.90836 | 165 ft | 2 kts | 26° |
| 2026-05-08 12:18 | 43.30426 | -2.90845 | 164 ft | 2 kts | 26° |
| 2026-05-08 12:18 | 43.30412 | -2.90855 | 164 ft | 2 kts | 48° |
| 2026-05-08 12:19 | 43.30405 | -2.90873 | 164 ft | 1 kts | 78° |
| 2026-05-08 12:19 | 43.30405 | -2.90882 | 164 ft | 1 kts | 89° |
| 2026-05-08 12:19 | 43.30404 | -2.90887 | 164 ft | 0 kts | 86° |
| 2026-05-08 12:19 | 43.30404 | -2.90886 | 164 ft | 0 kts | 86° |
| 2026-05-08 12:22 | 43.30405 | -2.90877 | 164 ft | 4 kts | 86° |
| 2026-05-08 12:22 | 43.30404 | -2.90809 | 164 ft | 7 kts | 102° |
| 2026-05-08 12:23 | 43.30385 | -2.90741 | 164 ft | 7 kts | 115° |
| 2026-05-08 12:23 | 43.30360 | -2.90668 | 164 ft | 9 kts | 115° |
| 2026-05-08 12:23 | 43.30318 | -2.90594 | 162 ft | 10 kts | 143° |
| 2026-05-08 12:23 | 43.30247 | -2.90532 | 160 ft | 13 kts | 158° |
| 2026-05-08 12:24 | 43.30161 | -2.90566 | 158 ft | 14 kts | 205° |
| 2026-05-08 12:24 | 43.30088 | -2.90495 | 156 ft | 14 kts | 115° |
| 2026-05-08 12:24 | 43.30040 | -2.90361 | 154 ft | 16 kts | 118° |
| 2026-05-08 12:24 | 43.29983 | -2.90209 | 150 ft | 18 kts | 117° |
| 2026-05-08 12:25 | 43.29921 | -2.90036 | 145 ft | 21 kts | 115° |
| 2026-05-08 12:25 | 43.29849 | -2.89837 | 139 ft | 24 kts | 117° |
| 2026-05-08 12:25 | 43.29781 | -2.89649 | 133 ft | 18 kts | 119° |
| 2026-05-08 12:25 | 43.29689 | -2.89618 | 131 ft | 16 kts | 229° |
| 2026-05-08 12:26 | 43.29649 | -2.89740 | 133 ft | 13 kts | 279° |
| 2026-05-08 12:26 | 43.29673 | -2.89858 | 135 ft | 11 kts | 286° |
| 2026-05-08 12:26 | 43.29693 | -2.89927 | 137 ft | 0 kts | 297° |
| 2026-05-08 12:27 | 43.29720 | -2.89998 | 139 ft | 34 kts | 297° |
| 2026-05-08 12:27 | 43.29934 | -2.90590 | 152 ft | 102 kts | 296° |
| 2026-05-08 12:28 | 43.30335 | -2.91687 | 152 ft | 155 kts | 300° |
| 2026-05-08 12:28 | 43.30951 | -2.92991 | 491 ft | 166 kts | 312° |
| 2026-05-08 12:28 | 43.31850 | -2.93981 | 944 ft | 172 kts | 346° |
| 2026-05-08 12:28 | 43.33014 | -2.93859 | 1459 ft | 177 kts | 32° |
| 2026-05-08 12:29 | 43.33901 | -2.92620 | 1817 ft | 191 kts | 71° |
| 2026-05-08 12:29 | 43.34009 | -2.90816 | 2399 ft | 198 kts | 108° |
| 2026-05-08 12:29 | 43.33333 | -2.89163 | 2957 ft | 212 kts | 139° |
| 2026-05-08 12:29 | 43.32039 | -2.88016 | 3490 ft | 234 kts | 149° |
| 2026-05-08 12:30 | 43.30910 | -2.86269 | 4063 ft | 259 kts | 123° |
| 2026-05-08 12:30 | 43.29885 | -2.84240 | 4903 ft | 267 kts | 130° |
| 2026-05-08 12:30 | 43.28691 | -2.82303 | 5929 ft | 268 kts | 134° |
| 2026-05-08 12:30 | 43.27432 | -2.80458 | 6986 ft | 267 kts | 136° |
| 2026-05-08 12:31 | 43.26141 | -2.78660 | 7990 ft | 268 kts | 136° |
| 2026-05-08 12:31 | 43.25209 | -2.76516 | 8848 ft | 268 kts | 106° |
| 2026-05-08 12:31 | 43.25249 | -2.73910 | 9586 ft | 285 kts | 83° |
| 2026-05-08 12:31 | 43.25619 | -2.71188 | 10134 ft | 295 kts | 83° |
| 2026-05-08 12:32 | 43.25980 | -2.68386 | 10696 ft | 306 kts | 83° |
| 2026-05-08 12:32 | 43.26342 | -2.65511 | 11470 ft | 312 kts | 83° |
| 2026-05-08 12:32 | 43.26705 | -2.62583 | 12238 ft | 319 kts | 83° |
| 2026-05-08 12:32 | 43.27079 | -2.59555 | 13022 ft | 325 kts | 83° |
| 2026-05-08 12:33 | 43.27456 | -2.56485 | 13848 ft | 328 kts | 83° |
| 2026-05-08 12:33 | 43.27832 | -2.53406 | 14657 ft | 331 kts | 83° |
| 2026-05-08 12:33 | 43.28210 | -2.50300 | 15458 ft | 335 kts | 83° |
| 2026-05-08 12:33 | 43.28592 | -2.47168 | 16209 ft | 339 kts | 83° |
| 2026-05-08 12:34 | 43.28981 | -2.43962 | 16952 ft | 342 kts | 83° |
| 2026-05-08 12:34 | 43.29367 | -2.40772 | 17674 ft | 346 kts | 83° |
| 2026-05-08 12:34 | 43.29761 | -2.37507 | 18401 ft | 350 kts | 83° |
| 2026-05-08 12:34 | 43.30157 | -2.34220 | 19112 ft | 354 kts | 84° |
| 2026-05-08 12:35 | 43.30558 | -2.30886 | 19816 ft | 357 kts | 84° |
| 2026-05-08 12:35 | 43.30934 | -2.27521 | 20481 ft | 359 kts | 90° |
| 2026-05-08 12:35 | 43.30994 | -2.24092 | 21131 ft | 361 kts | 94° |
| 2026-05-08 12:35 | 43.31010 | -2.20532 | 21797 ft | 365 kts | 94° |
| 2026-05-08 12:36 | 43.31027 | -2.16986 | 22413 ft | 369 kts | 94° |
| 2026-05-08 12:36 | 43.31042 | -2.13490 | 23030 ft | 373 kts | 94° |
| 2026-05-08 12:36 | 43.31056 | -2.09945 | 23629 ft | 376 kts | 94° |
| 2026-05-08 12:36 | 43.31070 | -2.06324 | 24225 ft | 380 kts | 94° |
| 2026-05-08 12:37 | 43.31082 | -2.02718 | 24796 ft | 384 kts | 94° |
| 2026-05-08 12:37 | 43.31093 | -1.99071 | 25360 ft | 387 kts | 94° |
| 2026-05-08 12:37 | 43.31099 | -1.95325 | 25927 ft | 390 kts | 94° |
| 2026-05-08 12:37 | 43.31101 | -1.91639 | 26475 ft | 393 kts | 94° |
| 2026-05-08 12:38 | 43.31099 | -1.87882 | 26984 ft | 396 kts | 94° |
| 2026-05-08 12:38 | 43.31094 | -1.84048 | 27505 ft | 399 kts | 94° |
| 2026-05-08 12:38 | 43.31085 | -1.80241 | 28019 ft | 402 kts | 94° |
| 2026-05-08 12:38 | 43.31073 | -1.76357 | 28528 ft | 405 kts | 94° |
| 2026-05-08 12:39 | 43.31057 | -1.72518 | 29042 ft | 407 kts | 94° |
| 2026-05-08 12:39 | 43.31038 | -1.68622 | 29503 ft | 410 kts | 94° |
| 2026-05-08 12:39 | 43.31015 | -1.64723 | 29865 ft | 415 kts | 94° |
| 2026-05-08 12:39 | 43.30986 | -1.60720 | 29906 ft | 425 kts | 94° |
| 2026-05-08 12:40 | 43.30949 | -1.56649 | 29914 ft | 437 kts | 94° |
| 2026-05-08 12:40 | 43.30903 | -1.52414 | 29909 ft | 445 kts | 94° |
| 2026-05-08 12:40 | 43.30799 | -1.43926 | 29902 ft | 444 kts | 94° |
| 2026-05-08 12:41 | 43.30685 | -1.35520 | 29909 ft | 445 kts | 94° |
| 2026-05-08 12:41 | 43.30561 | -1.27054 | 29909 ft | 443 kts | 95° |
| 2026-05-08 12:42 | 43.30423 | -1.18623 | 29910 ft | 443 kts | 95° |
| 2026-05-08 12:42 | 43.30273 | -1.10126 | 29912 ft | 444 kts | 95° |
| 2026-05-08 12:43 | 43.30115 | -1.01675 | 29910 ft | 445 kts | 95° |
| 2026-05-08 12:43 | 43.29946 | -0.93192 | 29913 ft | 445 kts | 95° |
| 2026-05-08 12:44 | 43.30157 | -0.84694 | 29919 ft | 450 kts | 83° |
| 2026-05-08 12:44 | 43.32276 | -0.76566 | 29923 ft | 461 kts | 64° |
| 2026-05-08 12:45 | 43.36287 | -0.69625 | 29917 ft | 471 kts | 44° |
| 2026-05-08 12:45 | 43.41762 | -0.64703 | 29918 ft | 476 kts | 25° |
| 2026-05-08 12:46 | 43.48162 | -0.62347 | 29915 ft | 479 kts | 6° |
| 2026-05-08 12:46 | 43.54773 | -0.62847 | 29910 ft | 478 kts | 346° |
| 2026-05-08 12:47 | 43.60929 | -0.66153 | 29909 ft | 475 kts | 328° |
| 2026-05-08 12:47 | 43.66611 | -0.70743 | 29898 ft | 475 kts | 328° |
| 2026-05-08 12:48 | 43.72300 | -0.75351 | 29892 ft | 475 kts | 328° |
| 2026-05-08 12:48 | 43.78009 | -0.79982 | 29897 ft | 474 kts | 328° |
| 2026-05-08 12:49 | 43.83954 | -0.83945 | 29896 ft | 477 kts | 342° |
| 2026-05-08 12:49 | 43.90501 | -0.85261 | 29904 ft | 478 kts | 1° |
| 2026-05-08 12:50 | 43.97013 | -0.83912 | 29897 ft | 477 kts | 9° |
| 2026-05-08 12:50 | 44.03675 | -0.83581 | 29894 ft | 479 kts | 359° |
| 2026-05-08 12:51 | 44.13608 | -0.83689 | 29887 ft | 478 kts | 359° |
| 2026-05-08 12:52 | 44.20230 | -0.83760 | 29889 ft | 478 kts | 359° |
| 2026-05-08 12:52 | 44.30175 | -0.83867 | 29884 ft | 477 kts | 359° |
| 2026-05-08 12:53 | 44.36826 | -0.83928 | 29892 ft | 477 kts | 1° |
| 2026-05-08 12:53 | 44.43353 | -0.82321 | 29892 ft | 476 kts | 19° |
| 2026-05-08 12:54 | 44.49552 | -0.79190 | 29890 ft | 475 kts | 20° |
| 2026-05-08 12:54 | 44.55780 | -0.76096 | 29893 ft | 476 kts | 20° |
| 2026-05-08 12:55 | 44.62011 | -0.72998 | 29892 ft | 476 kts | 20° |
| 2026-05-08 12:55 | 44.68265 | -0.69883 | 29901 ft | 474 kts | 20° |
| 2026-05-08 12:56 | 44.74463 | -0.66788 | 29905 ft | 474 kts | 20° |
| 2026-05-08 12:56 | 44.80705 | -0.63664 | 29910 ft | 474 kts | 19° |
| 2026-05-08 12:57 | 44.86899 | -0.60557 | 29906 ft | 475 kts | 19° |
| 2026-05-08 12:57 | 44.93152 | -0.57413 | 29910 ft | 475 kts | 19° |
| 2026-05-08 12:58 | 44.99346 | -0.54292 | 29898 ft | 474 kts | 19° |
| 2026-05-08 12:58 | 45.05534 | -0.51166 | 29903 ft | 473 kts | 19° |
| 2026-05-08 12:59 | 45.11691 | -0.48049 | 29905 ft | 473 kts | 19° |
| 2026-05-08 12:59 | 45.17876 | -0.44910 | 29910 ft | 473 kts | 19° |
| 2026-05-08 13:00 | 45.24097 | -0.41746 | 29911 ft | 473 kts | 19° |
| 2026-05-08 13:00 | 45.30265 | -0.38602 | 29914 ft | 472 kts | 19° |
| 2026-05-08 13:01 | 45.36466 | -0.35434 | 29914 ft | 472 kts | 18° |
| 2026-05-08 13:01 | 45.42633 | -0.32275 | 29912 ft | 472 kts | 19° |
| 2026-05-08 13:02 | 45.48748 | -0.29133 | 29919 ft | 470 kts | 19° |
| 2026-05-08 13:02 | 45.54894 | -0.25881 | 29918 ft | 470 kts | 19° |
| 2026-05-08 13:03 | 45.61013 | -0.22641 | 29924 ft | 469 kts | 19° |
| 2026-05-08 13:03 | 45.67159 | -0.19378 | 29927 ft | 470 kts | 19° |
| 2026-05-08 13:04 | 45.73269 | -0.16127 | 29925 ft | 469 kts | 19° |
| 2026-05-08 13:04 | 45.79350 | -0.12883 | 29928 ft | 468 kts | 19° |
| 2026-05-08 13:05 | 45.85426 | -0.09635 | 29929 ft | 466 kts | 19° |
| 2026-05-08 13:05 | 45.91508 | -0.06375 | 29930 ft | 466 kts | 19° |
| 2026-05-08 13:06 | 45.97546 | -0.03133 | 29933 ft | 466 kts | 19° |
| 2026-05-08 13:06 | 46.03583 | 0.00118 | 29932 ft | 466 kts | 19° |
| 2026-05-08 13:07 | 46.09666 | 0.03399 | 29936 ft | 464 kts | 19° |
| 2026-05-08 13:07 | 46.15700 | 0.06663 | 29935 ft | 463 kts | 19° |
| 2026-05-08 13:08 | 46.21758 | 0.09948 | 29940 ft | 461 kts | 19° |
| 2026-05-08 13:08 | 46.27750 | 0.13204 | 29943 ft | 461 kts | 18° |
| 2026-05-08 13:09 | 46.33740 | 0.16467 | 29943 ft | 460 kts | 18° |
| 2026-05-08 13:09 | 46.39691 | 0.19717 | 29941 ft | 460 kts | 18° |
| 2026-05-08 13:10 | 46.45677 | 0.22992 | 29944 ft | 460 kts | 18° |
| 2026-05-08 13:10 | 46.51682 | 0.26287 | 29952 ft | 459 kts | 18° |
| 2026-05-08 13:11 | 46.57683 | 0.29551 | 29953 ft | 458 kts | 15° |
| 2026-05-08 13:11 | 46.63831 | 0.31575 | 29957 ft | 454 kts | 9° |
| 2026-05-08 13:12 | 46.70024 | 0.33468 | 29955 ft | 452 kts | 9° |
| 2026-05-08 13:12 | 46.76139 | 0.35346 | 29948 ft | 452 kts | 9° |
| 2026-05-08 13:13 | 46.82293 | 0.37241 | 29952 ft | 451 kts | 9° |
| 2026-05-08 13:13 | 46.88437 | 0.39137 | 29954 ft | 449 kts | 9° |
| 2026-05-08 13:14 | 46.94560 | 0.41031 | 29951 ft | 450 kts | 9° |
| 2026-05-08 13:14 | 47.00675 | 0.42928 | 29947 ft | 450 kts | 9° |
| 2026-05-08 13:15 | 47.06798 | 0.44664 | 29945 ft | 446 kts | 2° |
| 2026-05-08 13:15 | 47.12934 | 0.44122 | 29964 ft | 438 kts | 347° |
| 2026-05-08 13:16 | 47.18933 | 0.42632 | 29964 ft | 439 kts | 347° |
| 2026-05-08 13:16 | 47.24930 | 0.41168 | 29960 ft | 438 kts | 347° |
| 2026-05-08 13:17 | 47.30987 | 0.39687 | 29961 ft | 439 kts | 347° |
| 2026-05-08 13:17 | 47.33927 | 0.38969 | 29959 ft | 427 kts | 347° |
| 2026-05-08 13:17 | 47.36850 | 0.38253 | 29956 ft | 421 kts | 347° |
| 2026-05-08 13:18 | 47.39706 | 0.37553 | 29640 ft | 408 kts | 347° |
| 2026-05-08 13:18 | 47.42472 | 0.36872 | 28848 ft | 405 kts | 347° |
| 2026-05-08 13:18 | 47.45266 | 0.36185 | 27923 ft | 404 kts | 347° |
| 2026-05-08 13:18 | 47.48001 | 0.35511 | 27032 ft | 403 kts | 347° |
| 2026-05-08 13:19 | 47.50779 | 0.34823 | 26144 ft | 401 kts | 347° |
| 2026-05-08 13:19 | 47.53499 | 0.34149 | 25286 ft | 398 kts | 347° |
| 2026-05-08 13:19 | 47.56231 | 0.33471 | 24419 ft | 396 kts | 347° |
| 2026-05-08 13:19 | 47.58920 | 0.32804 | 23763 ft | 391 kts | 347° |
| 2026-05-08 13:20 | 47.61581 | 0.32142 | 23300 ft | 385 kts | 347° |
| 2026-05-08 13:20 | 47.64189 | 0.31493 | 23000 ft | 380 kts | 347° |
| 2026-05-08 13:20 | 47.66819 | 0.30838 | 22852 ft | 380 kts | 347° |
| 2026-05-08 13:20 | 47.69405 | 0.30193 | 22876 ft | 380 kts | 347° |
| 2026-05-08 13:21 | 47.72020 | 0.29540 | 22907 ft | 381 kts | 347° |
| 2026-05-08 13:21 | 47.74651 | 0.28882 | 22948 ft | 388 kts | 347° |
| 2026-05-08 13:21 | 47.77361 | 0.28203 | 23464 ft | 394 kts | 348° |
| 2026-05-08 13:21 | 47.80079 | 0.28058 | 23910 ft | 394 kts | 6° |
| 2026-05-08 13:22 | 47.82636 | 0.29418 | 23972 ft | 401 kts | 28° |
| 2026-05-08 13:22 | 47.84943 | 0.31843 | 23990 ft | 403 kts | 32° |
| 2026-05-08 13:22 | 47.87202 | 0.34245 | 23978 ft | 402 kts | 32° |
| 2026-05-08 13:22 | 47.89446 | 0.36608 | 23956 ft | 381 kts | 31° |
| 2026-05-08 13:23 | 47.91531 | 0.38798 | 23953 ft | 360 kts | 31° |
| 2026-05-08 13:23 | 47.93579 | 0.40945 | 23956 ft | 355 kts | 31° |
| 2026-05-08 13:23 | 47.95619 | 0.43081 | 23715 ft | 360 kts | 30° |
| 2026-05-08 13:23 | 47.97664 | 0.45226 | 23390 ft | 360 kts | 30° |
| 2026-05-08 13:24 | 47.99719 | 0.47384 | 23076 ft | 359 kts | 30° |
| 2026-05-08 13:24 | 48.01738 | 0.49507 | 22761 ft | 357 kts | 31° |
| 2026-05-08 13:24 | 48.03777 | 0.51652 | 22448 ft | 354 kts | 30° |
| 2026-05-08 13:24 | 48.05794 | 0.53777 | 22138 ft | 353 kts | 31° |
| 2026-05-08 13:25 | 48.07795 | 0.55886 | 21818 ft | 352 kts | 31° |
| 2026-05-08 13:25 | 48.09777 | 0.57977 | 21509 ft | 351 kts | 31° |
| 2026-05-08 13:25 | 48.11773 | 0.60085 | 21197 ft | 350 kts | 31° |
| 2026-05-08 13:25 | 48.13752 | 0.62177 | 20865 ft | 349 kts | 31° |
| 2026-05-08 13:26 | 48.15744 | 0.64286 | 20532 ft | 347 kts | 31° |
| 2026-05-08 13:26 | 48.17692 | 0.66349 | 20200 ft | 346 kts | 32° |
| 2026-05-08 13:26 | 48.19680 | 0.68457 | 19845 ft | 346 kts | 32° |
| 2026-05-08 13:26 | 48.21627 | 0.70524 | 19506 ft | 345 kts | 33° |
| 2026-05-08 13:27 | 48.23604 | 0.72623 | 19173 ft | 343 kts | 33° |
| 2026-05-08 13:27 | 48.25537 | 0.74678 | 18831 ft | 341 kts | 33° |
| 2026-05-08 13:27 | 48.27481 | 0.76748 | 18488 ft | 341 kts | 34° |
| 2026-05-08 13:27 | 48.29426 | 0.78819 | 18148 ft | 340 kts | 33° |
| 2026-05-08 13:28 | 48.31340 | 0.80856 | 17797 ft | 338 kts | 34° |
| 2026-05-08 13:28 | 48.33256 | 0.82903 | 17451 ft | 334 kts | 34° |
| 2026-05-08 13:28 | 48.34879 | 0.85324 | 17106 ft | 334 kts | 57° |
| 2026-05-08 13:28 | 48.36017 | 0.88377 | 16791 ft | 333 kts | 62° |
| 2026-05-08 13:29 | 48.37104 | 0.91462 | 16441 ft | 331 kts | 62° |
| 2026-05-08 13:29 | 48.38174 | 0.94527 | 16097 ft | 330 kts | 62° |
| 2026-05-08 13:29 | 48.39224 | 0.97550 | 15750 ft | 327 kts | 62° |
| 2026-05-08 13:29 | 48.40277 | 1.00588 | 15397 ft | 325 kts | 63° |
| 2026-05-08 13:30 | 48.41314 | 1.03588 | 15051 ft | 323 kts | 62° |
| 2026-05-08 13:30 | 48.42348 | 1.06583 | 14700 ft | 322 kts | 63° |
| 2026-05-08 13:30 | 48.43368 | 1.09548 | 14353 ft | 319 kts | 63° |
| 2026-05-08 13:30 | 48.44399 | 1.12543 | 14000 ft | 316 kts | 63° |
| 2026-05-08 13:31 | 48.45409 | 1.15479 | 13653 ft | 315 kts | 63° |
| 2026-05-08 13:31 | 48.46409 | 1.18391 | 13309 ft | 312 kts | 63° |
| 2026-05-08 13:31 | 48.47412 | 1.21318 | 12967 ft | 310 kts | 63° |
| 2026-05-08 13:31 | 48.48401 | 1.24204 | 12622 ft | 307 kts | 63° |
| 2026-05-08 13:32 | 48.49373 | 1.27048 | 12284 ft | 305 kts | 63° |
| 2026-05-08 13:32 | 48.50336 | 1.29865 | 11944 ft | 303 kts | 63° |
| 2026-05-08 13:32 | 48.51302 | 1.32696 | 11603 ft | 301 kts | 63° |
| 2026-05-08 13:32 | 48.52264 | 1.35491 | 11256 ft | 299 kts | 62° |
| 2026-05-08 13:33 | 48.53538 | 1.37883 | 11042 ft | 295 kts | 45° |
| 2026-05-08 13:33 | 48.54959 | 1.40123 | 11010 ft | 296 kts | 47° |
| 2026-05-08 13:33 | 48.56357 | 1.42452 | 11003 ft | 297 kts | 48° |
| 2026-05-08 13:33 | 48.57734 | 1.44805 | 11006 ft | 298 kts | 49° |
| 2026-05-08 13:34 | 48.59098 | 1.47162 | 11001 ft | 298 kts | 49° |
| 2026-05-08 13:34 | 48.60454 | 1.49521 | 11000 ft | 297 kts | 49° |
| 2026-05-08 13:34 | 48.61807 | 1.51879 | 11001 ft | 298 kts | 49° |
| 2026-05-08 13:34 | 48.63171 | 1.54262 | 11001 ft | 297 kts | 49° |
| 2026-05-08 13:35 | 48.64527 | 1.56633 | 10999 ft | 297 kts | 49° |
| 2026-05-08 13:35 | 48.65873 | 1.58989 | 11001 ft | 298 kts | 49° |
| 2026-05-08 13:35 | 48.67231 | 1.61368 | 11002 ft | 297 kts | 49° |
| 2026-05-08 13:35 | 48.68586 | 1.63745 | 10998 ft | 297 kts | 49° |
| 2026-05-08 13:36 | 48.69935 | 1.66113 | 11002 ft | 297 kts | 50° |
| 2026-05-08 13:36 | 48.71290 | 1.68494 | 11009 ft | 298 kts | 49° |
| 2026-05-08 13:36 | 48.72649 | 1.70886 | 10697 ft | 300 kts | 50° |
| 2026-05-08 13:36 | 48.74008 | 1.73278 | 10362 ft | 296 kts | 49° |
| 2026-05-08 13:37 | 48.75358 | 1.75656 | 10024 ft | 293 kts | 50° |
| 2026-05-08 13:37 | 48.76687 | 1.78000 | 9698 ft | 290 kts | 50° |
| 2026-05-08 13:37 | 48.77998 | 1.80314 | 9371 ft | 287 kts | 50° |
| 2026-05-08 13:37 | 48.79286 | 1.82589 | 9032 ft | 280 kts | 50° |
| 2026-05-08 13:38 | 48.80545 | 1.84814 | 8690 ft | 273 kts | 50° |
| 2026-05-08 13:38 | 48.81760 | 1.86965 | 8393 ft | 265 kts | 50° |
| 2026-05-08 13:38 | 48.82936 | 1.89047 | 8131 ft | 257 kts | 50° |
| 2026-05-08 13:38 | 48.84087 | 1.91087 | 7864 ft | 250 kts | 50° |
| 2026-05-08 13:39 | 48.85210 | 1.93079 | 7593 ft | 243 kts | 50° |
| 2026-05-08 13:39 | 48.86293 | 1.95002 | 7376 ft | 235 kts | 50° |
| 2026-05-08 13:39 | 48.87343 | 1.96867 | 7161 ft | 227 kts | 50° |
| 2026-05-08 13:39 | 48.88336 | 1.98632 | 7056 ft | 212 kts | 50° |
| 2026-05-08 13:40 | 48.89259 | 2.00273 | 6916 ft | 198 kts | 50° |
| 2026-05-08 13:40 | 48.90128 | 2.01819 | 6790 ft | 182 kts | 51° |
| 2026-05-08 13:40 | 48.90925 | 2.03237 | 6581 ft | 171 kts | 51° |
| 2026-05-08 13:40 | 48.91681 | 2.04586 | 6423 ft | 163 kts | 51° |
| 2026-05-08 13:41 | 48.92397 | 2.05862 | 6260 ft | 155 kts | 51° |
| 2026-05-08 13:41 | 48.93071 | 2.07063 | 5973 ft | 142 kts | 50° |
| 2026-05-08 13:41 | 48.93690 | 2.08167 | 5692 ft | 133 kts | 51° |
| 2026-05-08 13:41 | 48.94288 | 2.09235 | 5442 ft | 132 kts | 51° |
| 2026-05-08 13:42 | 48.94892 | 2.10314 | 5210 ft | 134 kts | 51° |
| 2026-05-08 13:42 | 48.95495 | 2.11391 | 5003 ft | 133 kts | 51° |
| 2026-05-08 13:42 | 48.96095 | 2.12465 | 4980 ft | 132 kts | 51° |
| 2026-05-08 13:42 | 48.96682 | 2.13531 | 4969 ft | 132 kts | 56° |
| 2026-05-08 13:43 | 48.97011 | 2.14819 | 4926 ft | 134 kts | 85° |
| 2026-05-08 13:43 | 48.97076 | 2.16236 | 4916 ft | 134 kts | 85° |
| 2026-05-08 13:43 | 48.97145 | 2.17633 | 4883 ft | 133 kts | 85° |
| 2026-05-08 13:43 | 48.97217 | 2.19019 | 4846 ft | 132 kts | 85° |
| 2026-05-08 13:44 | 48.97296 | 2.20497 | 4876 ft | 151 kts | 85° |
| 2026-05-08 13:44 | 48.97393 | 2.22259 | 4756 ft | 182 kts | 84° |
| 2026-05-08 13:44 | 48.97501 | 2.24218 | 4509 ft | 187 kts | 84° |
| 2026-05-08 13:44 | 48.97612 | 2.26181 | 4250 ft | 187 kts | 84° |
| 2026-05-08 13:45 | 48.97724 | 2.28169 | 3986 ft | 186 kts | 84° |
| 2026-05-08 13:45 | 48.97828 | 2.30101 | 3730 ft | 184 kts | 85° |
| 2026-05-08 13:45 | 48.97939 | 2.32052 | 3476 ft | 184 kts | 84° |
| 2026-05-08 13:45 | 48.98050 | 2.33982 | 3225 ft | 183 kts | 84° |
| 2026-05-08 13:46 | 48.98158 | 2.35900 | 2976 ft | 181 kts | 84° |
| 2026-05-08 13:46 | 48.98265 | 2.37821 | 2729 ft | 182 kts | 84° |
| 2026-05-08 13:46 | 48.98371 | 2.39727 | 2483 ft | 181 kts | 84° |
| 2026-05-08 13:46 | 48.98474 | 2.41608 | 2232 ft | 170 kts | 85° |
| 2026-05-08 13:47 | 48.98564 | 2.43312 | 1983 ft | 150 kts | 83° |
| 2026-05-08 13:47 | 48.98649 | 2.44793 | 1793 ft | 129 kts | 83° |
| 2026-05-08 13:47 | 48.98723 | 2.46112 | 1621 ft | 125 kts | 82° |
| 2026-05-08 13:47 | 48.98795 | 2.47417 | 1485 ft | 125 kts | 83° |
| 2026-05-08 13:48 | 48.98868 | 2.48750 | 1336 ft | 125 kts | 83° |
| 2026-05-08 13:48 | 48.98942 | 2.50100 | 1171 ft | 129 kts | 84° |
| 2026-05-08 13:48 | 48.99015 | 2.51442 | 997 ft | 125 kts | 83° |
| 2026-05-08 13:48 | 48.99087 | 2.52782 | 829 ft | 129 kts | 83° |
| 2026-05-08 13:49 | 48.99160 | 2.54120 | 688 ft | 123 kts | 85° |
| 2026-05-08 13:49 | 48.99226 | 2.55474 | 554 ft | 129 kts | 83° |
| 2026-05-08 13:49 | 48.99307 | 2.56824 | 385 ft | 130 kts | 83° |
| 2026-05-08 13:49 | 48.99376 | 2.58054 | 322 ft | 81 kts | 89° |
| 2026-05-08 13:50 | 48.99423 | 2.58537 | 321 ft | 27 kts | 66° |
| 2026-05-08 13:50 | 48.99500 | 2.58798 | 323 ft | 26 kts | 63° |
| 2026-05-08 13:50 | 48.99575 | 2.59048 | 321 ft | 25 kts | 65° |
| 2026-05-08 13:50 | 48.99610 | 2.59288 | 322 ft | 19 kts | 84° |
| 2026-05-08 13:51 | 48.99622 | 2.59485 | 322 ft | 18 kts | 85° |
| 2026-05-08 13:51 | 48.99659 | 2.59665 | 320 ft | 19 kts | 34° |
| 2026-05-08 13:51 | 48.99778 | 2.59677 | 322 ft | 15 kts | 353° |
| 2026-05-08 13:51 | 48.99886 | 2.59661 | 323 ft | 15 kts | 357° |
| 2026-05-08 13:52 | 48.99994 | 2.59658 | 323 ft | 15 kts | 352° |
| 2026-05-08 13:52 | 49.00098 | 2.59640 | 325 ft | 14 kts | 355° |
| 2026-05-08 13:52 | 49.00194 | 2.59628 | 326 ft | 13 kts | 356° |
| 2026-05-08 13:52 | 49.00290 | 2.59616 | 326 ft | 14 kts | 355° |
| 2026-05-08 13:53 | 49.00385 | 2.59594 | 327 ft | 13 kts | 326° |
| 2026-05-08 13:53 | 49.00409 | 2.59469 | 328 ft | 13 kts | 266° |
| 2026-05-08 13:53 | 49.00398 | 2.59344 | 328 ft | 11 kts | 261° |
| 2026-05-08 13:53 | 49.00394 | 2.59271 | 328 ft | 5 kts | 263° |
| 2026-05-08 13:54 | 49.00391 | 2.59224 | 329 ft | 3 kts | 265° |
| 2026-05-08 13:54 | 49.00389 | 2.59193 | 329 ft | 2 kts | 265° |
| 2026-05-08 13:54 | 49.00389 | 2.59187 | 329 ft | 0 kts | 265° |